Time;durP1;ratioP1;P1;durP2;ratioP2;P2;SDS_P1;SDS_P2;PMS_P1;PMS_P2;Temp;Humidity;BMP_temperature;BMP_pressure;BME280_temperature;BME280_humidity;BME280_pressure;Samples;Min_cycle;Max_cycle;Signal;HPM_P1;HPM_P2
2021/12/15 00:02:11;;;;;;;;;;;;;;;17.19;70.21;101751.22;4991116;28;1802;-34
2021/12/15 00:04:37;;;;;;;;;;;;;;;17.17;70.43;101743.31;4992081;28;1646;-34
2021/12/15 00:07:04;;;;;;;;;;;;;;;17.22;70.80;101735.84;4991561;28;1741;-34
2021/12/15 00:09:31;;;;;;;;;;;;;;;17.17;70.56;101742.44;4992717;28;1218;-34
2021/12/15 00:11:57;;;;;;;;;;;;;;;17.18;70.40;101728.13;4991409;28;1903;-34
2021/12/15 00:14:24;;;;;;;;;;;;;;;17.17;70.08;101726.41;4991717;28;1927;-34
2021/12/15 00:16:52;;;;;;;;;;;;;;;17.13;70.89;101722.22;4989020;28;1919;-35
2021/12/15 00:19:18;;;;;;;;;;;;;;;17.12;70.50;101723.19;4992349;28;1103;-34
2021/12/15 00:21:45;;;;;;;;;;;;;;;17.08;70.65;101718.03;4990771;28;1761;-34
2021/12/15 00:24:12;;;;;;;;;;;;;;;17.07;70.49;101726.16;4988171;28;1816;-34
2021/12/15 00:26:38;;;;;;;;;;;;;;;17.06;70.76;101743.16;4991842;28;1734;-34
2021/12/15 00:29:06;;;;;;;;;;;;;;;17.01;70.46;101735.44;4991901;28;1622;-34
2021/12/15 00:31:33;;;;;;;;;;;;;;;17.01;71.10;101747.91;4991598;28;1952;-34
2021/12/15 00:34:01;;;;;;;;;;;;;;;17.02;71.16;101749.66;4991714;28;1967;-34
2021/12/15 00:36:27;;;;;;;;;;;;;;;16.98;70.69;101740.13;4991786;28;1802;-34
2021/12/15 00:38:54;;;;;;;;;;;;;;;16.98;70.77;101732.94;4991363;28;1784;-33
2021/12/15 00:41:20;;;;;;;;;;;;;;;16.95;71.12;101722.47;4989567;28;1751;-34
2021/12/15 00:43:47;;;;;;;;;;;;;;;16.99;70.86;101728.47;4991619;28;1115;-33
2021/12/15 00:46:13;;;;;;;;;;;;;;;16.97;71.00;101723.22;4991133;28;1805;-34
2021/12/15 00:48:41;;;;;;;;;;;;;;;16.94;70.89;101726.09;4990464;28;1765;-34
2021/12/15 00:51:09;;;;;;;;;;;;;;;16.98;71.00;101726.75;4990761;28;1964;-33
2021/12/15 00:53:36;;;;;;;;;;;;;;;16.94;71.02;101726.09;4991256;28;1797;-34
2021/12/15 00:56:02;;;;;;;;;;;;;;;16.94;71.03;101730.59;4992630;28;1077;-34
2021/12/15 00:58:29;;;;;;;;;;;;;;;16.87;70.44;101714.94;4990504;28;1912;-33
2021/12/15 01:00:57;;;;;;;;;;;;;;;16.86;71.07;101707.03;4991347;28;1980;-34
2021/12/15 01:03:24;;;;;;;;;;;;;;;16.86;70.16;101718.56;4987381;28;1738;-34
2021/12/15 01:05:52;;;;;;;;;;;;;;;16.84;70.39;101720.47;4990932;28;1828;-34
2021/12/15 01:08:22;;;;;;;;;;;;;;;16.85;70.74;101729.34;4990610;28;1730;-34
2021/12/15 01:11:03;;;;;;;;;;;;;;;16.88;70.98;101723.81;4989713;28;1914;-34
2021/12/15 01:21:43;;;;;;;;;;;;;;;16.80;70.78;101728.75;4991428;28;839;-33
2021/12/15 01:24:11;;;;;;;;;;;;;;;16.82;70.26;101718.88;4990113;28;1935;-34
2021/12/15 01:26:38;;;;;;;;;;;;;;;16.83;71.02;101715.22;4976425;28;1809;-34
2021/12/15 01:29:04;;;;;;;;;;;;;;;16.83;70.39;101724.13;4991278;28;1789;-34
2021/12/15 01:31:31;;;;;;;;;;;;;;;16.82;71.01;101726.88;4991764;28;1906;-33
2021/12/15 01:33:58;;;;;;;;;;;;;;;16.80;70.77;101732.28;4989361;28;1804;-34
2021/12/15 01:36:24;;;;;;;;;;;;;;;16.79;71.12;101727.91;4990792;28;1974;-33
2021/12/15 01:38:51;;;;;;;;;;;;;;;16.80;70.48;101736.78;4988982;28;1965;-33
2021/12/15 01:41:22;;;;;;;;;;;;;;;16.75;70.70;101725.50;4991027;28;1789;-34
2021/12/15 01:46:52;;;;;;;;;;;;;;;16.76;70.93;101725.41;4990533;28;1451;-34
2021/12/15 01:46:56;;;;;;;;;;;;;;;16.77;70.37;101735.16;4990378;28;1780;-34
2021/12/15 01:49:25;;;;;;;;;;;;;;;16.74;70.70;101727.34;4989678;28;1738;-33
2021/12/15 01:51:52;;;;;;;;;;;;;;;16.75;70.31;101730.84;4988953;28;1902;-35
2021/12/15 01:54:19;;;;;;;;;;;;;;;16.73;70.59;101730.94;4987853;28;1425;-34
2021/12/15 01:56:47;;;;;;;;;;;;;;;16.72;70.80;101725.72;4990274;28;1796;-34
2021/12/15 01:59:14;;;;;;;;;;;;;;;16.67;70.56;101724.19;4990054;28;1746;-34
2021/12/15 02:01:41;;;;;;;;;;;;;;;16.66;70.94;101721.63;4989826;28;1747;-34
2021/12/15 02:04:08;;;;;;;;;;;;;;;16.64;70.95;101729.72;4991109;28;1019;-34
2021/12/15 02:06:37;;;;;;;;;;;;;;;16.64;71.04;101740.41;4990275;28;1914;-33
2021/12/15 02:09:05;;;;;;;;;;;;;;;16.61;70.56;101729.94;4981667;28;1977;-34
2021/12/15 02:11:31;;;;;;;;;;;;;;;16.64;71.24;101735.06;4989999;28;1910;-34
2021/12/15 02:13:59;;;;;;;;;;;;;;;16.61;70.76;101740.63;4989212;28;1436;-34
2021/12/15 02:16:25;;;;;;;;;;;;;;;16.61;70.78;101748.63;4988215;28;1701;-34
2021/12/15 02:18:52;;;;;;;;;;;;;;;16.68;70.95;101759.78;4982511;28;2086;-34
2021/12/15 02:21:21;;;;;;;;;;;;;;;16.64;71.06;101753.75;4986630;28;1623;-33
2021/12/15 02:23:52;;;;;;;;;;;;;;;16.64;70.65;101737.72;4988552;28;1855;-34
2021/12/15 02:26:21;;;;;;;;;;;;;;;16.65;70.88;101735.91;4987217;28;1796;-34
2021/12/15 02:28:49;;;;;;;;;;;;;;;16.63;71.04;101733.38;4990040;28;1531;-34
2021/12/15 02:31:22;;;;;;;;;;;;;;;16.63;69.94;101728.03;4990807;28;1910;-33
2021/12/15 02:33:58;;;;;;;;;;;;;;;16.63;69.96;101733.38;4993130;28;2118;-34
2021/12/15 02:39:11;;;;;;;;;;;;;;;16.56;70.87;101726.69;4991209;28;1910;-34
2021/12/15 02:41:39;;;;;;;;;;;;;;;16.56;71.18;101726.69;4992904;28;1770;-34
2021/12/15 02:44:07;;;;;;;;;;;;;;;16.50;70.68;101716.38;4993233;28;1746;-34
2021/12/15 02:46:35;;;;;;;;;;;;;;;16.52;71.04;101706.47;4991638;28;1716;-34
2021/12/15 02:49:04;;;;;;;;;;;;;;;16.55;70.44;101703.59;4991632;28;1306;-34
2021/12/15 02:51:32;;;;;;;;;;;;;;;16.57;70.53;101714.19;4992064;28;1968;-34
2021/12/15 02:53:59;;;;;;;;;;;;;;;16.52;70.46;101698.47;4993066;28;1857;-34
2021/12/15 02:56:26;;;;;;;;;;;;;;;16.55;69.98;101692.91;4992832;28;1576;-33
2021/12/15 02:58:57;;;;;;;;;;;;;;;16.54;70.12;101696.53;4991353;28;1679;-34
2021/12/15 03:01:31;;;;;;;;;;;;;;;16.53;70.85;101697.47;5084968;23;3699;-33
2021/12/15 03:04:28;;;;;;;;;;;;;;;16.54;70.84;101704.56;4969670;28;1802;-34
2021/12/15 03:07:13;;;;;;;;;;;;;;;16.53;70.63;101710.00;4969322;28;1795;-34
2021/12/15 03:18:02;;;;;;;;;;;;;;;16.43;70.19;101709.69;4972559;28;1749;-34
2021/12/15 03:20:32;;;;;;;;;;;;;;;16.41;70.42;101696.47;4972234;28;2053;-34
2021/12/15 03:23:11;;;;;;;;;;;;;;;16.41;70.22;101695.59;4959935;28;1539;-33
2021/12/15 03:25:38;;;;;;;;;;;;;;;16.41;70.04;101708.94;4968162;28;1061;-34
2021/12/15 03:33:54;;;;;;;;;;;;;;;16.46;70.01;101720.19;4972970;28;1969;-33
2021/12/15 03:36:37;;;;;;;;;;;;;;;16.45;69.83;101715.81;4960943;28;1487;-33
2021/12/15 03:39:13;;;;;;;;;;;;;;;16.45;70.02;101713.13;4960254;28;1650;-34
2021/12/15 03:41:40;;;;;;;;;;;;;;;16.42;70.51;101716.00;4955963;28;1763;-35
2021/12/15 03:44:17;;;;;;;;;;;;;;;16.42;70.96;101724.00;4971645;28;1648;-34
2021/12/15 03:46:45;;;;;;;;;;;;;;;16.43;70.73;101709.69;4955639;28;1704;-34
2021/12/15 03:49:12;;;;;;;;;;;;;;;16.44;69.76;101716.78;4954094;28;1664;-34
2021/12/15 03:51:39;;;;;;;;;;;;;;;16.46;69.74;101714.88;4972159;28;2605;-34
2021/12/15 03:54:12;;;;;;;;;;;;;;;16.43;69.71;101731.06;4956338;28;1819;-34
2021/12/15 03:56:41;;;;;;;;;;;;;;;16.44;69.80;101724.78;4972720;28;1766;-33
2021/12/15 03:59:11;;;;;;;;;;;;;;;16.40;70.77;101728.59;4972479;28;1728;-34
2021/12/15 04:01:41;;;;;;;;;;;;;;;16.38;70.92;101725.16;4954604;28;1769;-34
2021/12/15 04:04:08;;;;;;;;;;;;;;;16.34;69.78;101732.50;4953948;29;1059;-33
2021/12/15 04:06:41;;;;;;;;;;;;;;;16.35;69.62;101722.66;4973262;28;1908;-34
2021/12/15 04:09:23;;;;;;;;;;;;;;;16.37;70.36;101726.09;4972826;28;1691;-34
2021/12/15 04:11:54;;;;;;;;;;;;;;;16.40;70.31;101720.59;4973904;28;1984;-34
2021/12/15 04:14:28;;;;;;;;;;;;;;;16.39;70.59;101724.19;4972262;28;1748;-33
2021/12/15 04:17:03;;;;;;;;;;;;;;;16.39;70.85;101737.53;4971979;28;2129;-34
2021/12/15 04:19:35;;;;;;;;;;;;;;;16.32;70.64;101718.38;4955898;28;1641;-34
2021/12/15 04:22:05;;;;;;;;;;;;;;;16.30;70.96;101731.81;4972009;28;1694;-34
2021/12/15 04:24:32;;;;;;;;;;;;;;;16.33;69.80;101741.44;4953426;28;1095;-33
2021/12/15 04:27:05;;;;;;;;;;;;;;;16.26;69.85;101734.78;4958055;28;1726;-34
2021/12/15 04:29:34;;;;;;;;;;;;;;;16.29;69.95;101745.25;4968330;28;1924;-34
2021/12/15 04:32:06;;;;;;;;;;;;;;;16.29;70.38;101739.91;4955922;28;1907;-34
2021/12/15 04:34:34;;;;;;;;;;;;;;;16.30;70.44;101758.50;4972549;28;1087;-34
2021/12/15 04:37:03;;;;;;;;;;;;;;;16.36;70.66;101745.75;4973081;28;1851;-33
2021/12/15 04:39:38;;;;;;;;;;;;;;;16.40;70.55;101747.28;4970534;28;1791;-36
2021/12/15 04:42:12;;;;;;;;;;;;;;;16.35;69.91;101750.22;4966937;28;1688;-35
2021/12/15 04:44:43;;;;;;;;;;;;;;;16.32;69.88;101762.91;4967595;28;1856;-36
2021/12/15 04:47:17;;;;;;;;;;;;;;;16.30;70.93;101746.97;4969017;28;1703;-36
2021/12/15 04:49:50;;;;;;;;;;;;;;;16.33;71.28;101759.28;4970894;28;1737;-36
2021/12/15 04:55:13;;;;;;;;;;;;;;;16.32;70.61;101750.41;4959709;28;2364;-36
2021/12/15 04:57:46;;;;;;;;;;;;;;;16.35;70.53;101757.38;4970786;28;2176;-35
2021/12/15 05:00:15;;;;;;;;;;;;;;;16.29;70.92;101735.47;4970779;28;1821;-35
2021/12/15 05:02:46;;;;;;;;;;;;;;;16.32;69.62;101749.56;4972528;28;1784;-36
2021/12/15 05:05:12;;;;;;;;;;;;;;;16.32;70.58;101760.25;4965361;28;1775;-36
2021/12/15 05:07:51;;;;;;;;;;;;;;;16.30;70.29;101742.50;4965588;28;1722;-35
2021/12/15 05:10:38;;;;;;;;;;;;;;;16.29;70.34;101755.94;4971651;28;1137;-35
2021/12/15 05:13:25;;;;;;;;;;;;;;;16.27;70.74;101753.38;4961557;28;2156;-36
2021/12/15 05:15:53;;;;;;;;;;;;;;;16.28;70.00;101755.06;4966854;28;1486;-36
2021/12/15 05:18:21;;;;;;;;;;;;;;;16.29;69.66;101762.16;4972598;28;1883;-36
2021/12/15 05:20:51;;;;;;;;;;;;;;;16.26;70.71;101756.97;4970390;28;1769;-36
2021/12/15 05:23:32;;;;;;;;;;;;;;;16.22;69.64;101759.94;4972189;28;2239;-35
2021/12/15 05:26:03;;;;;;;;;;;;;;;16.30;70.41;101763.84;4972115;28;1789;-36
2021/12/15 05:28:33;;;;;;;;;;;;;;;17.16;68.00;101764.81;4927880;28;10999;-36
2021/12/15 05:31:13;;;;;;;;;;;;;;;17.96;64.89;101747.00;5063313;28;1632;-36
2021/12/15 05:33:42;;;;;;;;;;;;;;;18.28;64.19;101730.53;5044903;28;1973;-36
2021/12/15 05:36:09;;;;;;;;;;;;;;;18.27;64.55;101732.38;5042684;28;1663;-36
2021/12/15 05:38:37;;;;;;;;;;;;;;;18.22;64.60;101737.19;5047130;28;1783;-36
2021/12/15 05:41:06;;;;;;;;;;;;;;;18.31;64.00;101743.72;5051684;28;1701;-36
2021/12/15 05:43:33;;;;;;;;;;;;;;;18.35;63.89;101744.38;5051942;28;1477;-36
2021/12/15 05:46:21;;;;;;;;;;;;;;;18.27;64.49;101751.09;5043598;28;1671;-36
2021/12/15 05:49:01;;;;;;;;;;;;;;;18.21;64.89;101746.19;5051990;28;1962;-36
2021/12/15 05:51:28;;;;;;;;;;;;;;;18.05;65.20;101762.44;5051791;28;1649;-36
2021/12/15 05:53:58;;;;;;;;;;;;;;;17.99;65.70;101762.03;5051589;28;1910;-36
2021/12/15 05:56:33;;;;;;;;;;;;;;;18.00;65.13;101774.41;5042615;28;1691;-36
2021/12/15 05:59:01;;;;;;;;;;;;;;;18.09;65.08;101757.75;5050208;28;1751;-36
2021/12/15 06:01:31;;;;;;;;;;;;;;;18.20;65.25;101757.84;5044662;28;1435;-36
2021/12/15 06:04:06;;;;;;;;;;;;;;;18.28;64.89;101747.47;5052392;28;2412;-36
2021/12/15 06:06:41;;;;;;;;;;;;;;;18.42;64.33;101759.91;5049652;28;1848;-36
2021/12/15 06:09:28;;;;;;;;;;;;;;;18.58;64.43;101754.31;5046921;28;1930;-35
2021/12/15 06:11:56;;;;;;;;;;;;;;;18.60;64.12;101740.81;5044460;28;1757;-35
2021/12/15 06:14:28;;;;;;;;;;;;;;;18.68;64.10;101742.00;5047795;28;1993;-35
2021/12/15 06:16:57;;;;;;;;;;;;;;;18.78;63.79;101744.88;5049457;28;1641;-35
2021/12/15 06:19:34;;;;;;;;;;;;;;;19.11;63.15;101750.59;5046414;28;1492;-35
2021/12/15 06:22:01;;;;;;;;;;;;;;;19.32;61.55;101737.41;5049301;28;1660;-35
2021/12/15 06:24:31;;;;;;;;;;;;;;;19.39;61.48;101752.09;5051018;28;1310;-35
2021/12/15 06:27:04;;;;;;;;;;;;;;;19.69;61.68;101748.94;5051472;28;1778;-36
2021/12/15 06:29:36;;;;;;;;;;;;;;;20.15;60.18;101758.84;5050511;28;1795;-35
2021/12/15 06:32:05;;;;;;;;;;;;;;;19.83;61.81;101731.81;5047810;28;1781;-35
2021/12/15 06:34:39;;;;;;;;;;;;;;;20.46;60.56;101780.66;5049498;28;2134;-35
2021/12/15 06:37:06;;;;;;;;;;;;;;;20.10;62.32;101753.00;5050200;28;1706;-35
2021/12/15 06:39:34;;;;;;;;;;;;;;;19.73;62.71;101753.13;5050749;28;1256;-35
2021/12/15 06:42:02;;;;;;;;;;;;;;;19.57;63.17;101765.97;5050083;28;1844;-35
2021/12/15 06:44:28;;;;;;;;;;;;;;;19.54;63.55;101739.38;5046396;28;1330;-35
2021/12/15 06:47:19;;;;;;;;;;;;;;;19.35;64.09;101746.09;5048697;28;1733;-35
2021/12/15 06:58:17;;;;;;;;;;;;;;;19.12;64.29;101773.75;5050902;28;1868;-35
2021/12/15 07:00:46;;;;;;;;;;;;;;;19.03;64.16;101769.91;5048699;28;1592;-35
2021/12/15 07:03:14;;;;;;;;;;;;;;;18.92;64.11;101770.72;5043671;28;1838;-35
2021/12/15 07:05:45;;;;;;;;;;;;;;;18.91;64.18;101785.06;5050679;28;1673;-36
2021/12/15 07:08:16;;;;;;;;;;;;;;;18.88;64.32;101790.66;5050261;28;1940;-35
2021/12/15 07:10:52;;;;;;;;;;;;;;;18.83;64.34;101790.97;5051590;28;1098;-35
2021/12/15 07:13:19;;;;;;;;;;;;;;;18.84;64.38;101799.84;5045538;28;1910;-36
2021/12/15 07:16:00;;;;;;;;;;;;;;;18.78;64.64;101805.63;5038383;28;1885;-35
2021/12/15 07:18:44;;;;;;;;;;;;;;;18.77;64.82;101802.09;5048682;28;1755;-36
2021/12/15 07:21:23;;;;;;;;;;;;;;;19.15;64.40;101805.72;5050246;28;1711;-35
2021/12/15 07:23:55;;;;;;;;;;;;;;;19.62;63.59;101804.91;5051156;28;1633;-35
2021/12/15 07:26:25;;;;;;;;;;;;;;;19.81;62.87;101814.28;5037851;28;1662;-36
2021/12/15 07:28:56;;;;;;;;;;;;;;;19.57;64.10;101827.66;5052918;28;1465;-36
2021/12/15 07:31:23;;;;;;;;;;;;;;;19.52;64.27;101829.81;5045847;28;1694;-36
2021/12/15 07:33:50;;;;;;;;;;;;;;;19.33;64.97;101815.09;5054206;28;1910;-36
2021/12/15 07:36:18;;;;;;;;;;;;;;;19.14;64.83;101809.34;5044017;28;1663;-36
2021/12/15 07:38:46;;;;;;;;;;;;;;;18.96;66.06;101823.13;5047462;28;1701;-36
2021/12/15 07:41:23;;;;;;;;;;;;;;;18.87;66.17;101805.00;5034587;28;1865;-36
2021/12/15 07:43:53;;;;;;;;;;;;;;;18.68;65.03;101803.59;5055089;28;1069;-36
2021/12/15 07:46:23;;;;;;;;;;;;;;;18.58;65.98;101815.94;5050659;28;1428;-36
2021/12/15 07:48:52;;;;;;;;;;;;;;;18.60;65.74;101819.38;5054950;28;1820;-36
2021/12/15 07:51:33;;;;;;;;;;;;;;;18.54;64.29;101827.81;5053507;28;1886;-36
2021/12/15 07:54:03;;;;;;;;;;;;;;;18.40;65.68;101830.59;5052282;28;1935;-35
2021/12/15 07:56:30;;;;;;;;;;;;;;;18.53;65.83;101842.19;5055535;28;1993;-35
2021/12/15 07:58:59;;;;;;;;;;;;;;;18.58;65.63;101831.13;5047656;28;1694;-35
2021/12/15 08:01:26;;;;;;;;;;;;;;;18.59;66.69;101841.75;5054313;28;1478;-35
2021/12/15 08:03:55;;;;;;;;;;;;;;;18.52;64.51;101839.59;5054391;28;1940;-35
2021/12/15 08:06:31;;;;;;;;;;;;;;;18.55;63.65;101845.59;5054947;28;1840;-35
2021/12/15 08:09:01;;;;;;;;;;;;;;;18.42;65.58;101842.06;5051792;28;1850;-35
2021/12/15 08:11:30;;;;;;;;;;;;;;;18.33;65.06;101861.44;5037233;28;1956;-35
2021/12/15 08:13:58;;;;;;;;;;;;;;;18.24;66.01;101869.16;5055160;28;1977;-35
2021/12/15 08:16:27;;;;;;;;;;;;;;;19.18;64.44;101851.06;5031998;28;1767;-35
2021/12/15 08:18:56;;;;;;;;;;;;;;;20.08;61.46;101862.38;5050687;28;1913;-35
2021/12/15 08:21:26;;;;;;;;;;;;;;;20.09;61.99;101847.09;5049673;28;1668;-35
2021/12/15 08:23:54;;;;;;;;;;;;;;;20.10;61.69;101860.41;5051681;28;1788;-35
2021/12/15 08:26:21;;;;;;;;;;;;;;;19.83;63.21;101860.66;5052377;28;1790;-35
2021/12/15 08:28:48;;;;;;;;;;;;;;;19.77;62.28;101867.31;5052910;28;1066;-35
2021/12/15 08:31:15;;;;;;;;;;;;;;;20.13;61.41;101868.22;5051380;28;1935;-35
2021/12/15 08:33:44;;;;;;;;;;;;;;;20.15;61.73;101870.81;5051854;28;1912;-35
2021/12/15 08:36:12;;;;;;;;;;;;;;;19.74;62.88;101869.41;5051057;28;1661;-35
2021/12/15 08:41:24;;;;;;;;;;;;;;;20.26;60.89;101858.28;5051855;28;2497;-35
2021/12/15 08:43:51;;;;;;;;;;;;;;;20.18;62.70;101859.84;5054131;28;1762;-34
2021/12/15 08:46:20;;;;;;;;;;;;;;;20.35;61.82;101856.72;5055514;28;1826;-35
2021/12/15 08:48:47;;;;;;;;;;;;;;;19.99;63.06;101860.34;5051761;28;1882;-35
2021/12/15 08:51:15;;;;;;;;;;;;;;;19.82;63.63;101880.44;5051558;28;1688;-35
2021/12/15 08:53:49;;;;;;;;;;;;;;;19.89;62.55;101864.72;5048860;28;1930;-35
2021/12/15 08:56:21;;;;;;;;;;;;;;;19.82;63.94;101859.81;5053035;28;1735;-35
2021/12/15 08:58:48;;;;;;;;;;;;;;;19.59;63.74;101853.41;5050534;28;1360;-35
2021/12/15 09:01:15;;;;;;;;;;;;;;;19.48;65.16;101867.63;5053588;28;1810;-35
2021/12/15 09:03:44;;;;;;;;;;;;;;;19.44;65.04;101870.66;5052624;28;2032;-35
2021/12/15 09:06:15;;;;;;;;;;;;;;;19.41;64.18;101868.19;5050484;28;1682;-35
2021/12/15 09:08:44;;;;;;;;;;;;;;;19.10;65.10;101856.13;5053554;28;1893;-35
2021/12/15 09:14:01;;;;;;;;;;;;;;;18.80;66.39;101854.63;5039036;28;2277;-36
2021/12/15 09:16:32;;;;;;;;;;;;;;;18.86;65.34;101854.19;5053518;28;1628;-35
2021/12/15 09:19:03;;;;;;;;;;;;;;;18.85;65.71;101855.19;5053623;28;1502;-35
2021/12/15 09:21:31;;;;;;;;;;;;;;;18.77;66.29;101844.13;5053027;28;1783;-35
2021/12/15 09:24:00;;;;;;;;;;;;;;;18.73;65.64;101854.19;5049003;28;1732;-35
2021/12/15 09:26:31;;;;;;;;;;;;;;;18.64;66.19;101861.06;5051626;28;1874;-35
2021/12/15 09:29:07;;;;;;;;;;;;;;;18.60;66.13;101864.03;5048423;28;1065;-35
2021/12/15 09:31:33;;;;;;;;;;;;;;;18.55;66.44;101845.59;5053324;28;1874;-35
2021/12/15 09:34:04;;;;;;;;;;;;;;;18.56;66.71;101859.84;5048857;28;1985;-35
2021/12/15 09:36:34;;;;;;;;;;;;;;;18.62;65.63;101852.28;5053582;28;2059;-35
2021/12/15 09:39:03;;;;;;;;;;;;;;;18.63;65.61;101850.44;5051913;28;1697;-35
2021/12/15 09:41:32;;;;;;;;;;;;;;;18.63;65.65;101848.59;5039392;28;1871;-35
2021/12/15 09:44:06;;;;;;;;;;;;;;;18.49;65.51;101846.88;5053452;28;1741;-35
2021/12/15 09:46:52;;;;;;;;;;;;;;;18.53;65.68;101850.22;5046589;28;1382;-36
2021/12/15 10:02:01;;;;;;;;;;;;;;;18.59;67.24;101846.25;5052098;28;1981;-35
2021/12/15 10:03:34;;;;;;;;;;;;;;;18.44;67.61;101859.75;5047244;28;1922;-35
2021/12/15 10:06:08;;;;;;;;;;;;;;;18.16;68.32;101855.38;5048967;28;1785;-35
2021/12/15 10:11:48;;;;;;;;;;;;;;;18.05;68.14;101855.28;5052203;28;1732;-35
2021/12/15 10:20:04;;;;;;;;;;;;;;;18.00;68.17;101838.66;5052031;28;1819;-35
2021/12/15 10:22:37;;;;;;;;;;;;;;;17.93;67.77;101848.06;5050557;28;1718;-35
2021/12/15 10:25:11;;;;;;;;;;;;;;;17.96;67.77;101843.34;5053486;28;990;-35
2021/12/15 10:27:40;;;;;;;;;;;;;;;18.03;67.75;101838.47;5048718;28;2017;-35
2021/12/15 10:30:12;;;;;;;;;;;;;;;18.31;67.53;101831.25;5050330;28;1755;-35
2021/12/15 10:32:40;;;;;;;;;;;;;;;18.59;66.96;101823.00;5043930;28;1617;-35
2021/12/15 10:35:13;;;;;;;;;;;;;;;18.74;66.62;101823.75;5049727;28;1975;-35
2021/12/15 10:37:41;;;;;;;;;;;;;;;18.89;66.08;101819.16;5052528;28;1811;-35
2021/12/15 10:40:13;;;;;;;;;;;;;;;19.03;65.72;101827.06;5053358;28;1142;-35
2021/12/15 10:42:43;;;;;;;;;;;;;;;19.06;65.05;101820.66;5051493;28;2215;-35
2021/12/15 10:45:19;;;;;;;;;;;;;;;19.21;65.54;101821.34;5049115;28;1670;-35
2021/12/15 10:47:52;;;;;;;;;;;;;;;19.31;64.06;101822.38;5042922;28;1782;-35
2021/12/15 10:50:23;;;;;;;;;;;;;;;19.24;65.86;101831.88;5044063;28;1700;-35
2021/12/15 10:53:06;;;;;;;;;;;;;;;19.51;64.60;101802.16;5049279;28;2031;-35
2021/12/15 10:55:37;;;;;;;;;;;;;;;19.52;65.58;101813.72;5040524;28;1906;-35
2021/12/15 10:58:19;;;;;;;;;;;;;;;19.30;65.11;101815.34;5053402;28;1828;-35
2021/12/15 11:00:48;;;;;;;;;;;;;;;19.51;65.63;101823.59;5052228;28;1713;-35
2021/12/15 11:03:23;;;;;;;;;;;;;;;19.32;64.77;101821.44;5053888;28;1758;-36
2021/12/15 11:05:49;;;;;;;;;;;;;;;19.42;65.94;101822.47;5052064;28;1540;-35
2021/12/15 11:08:22;;;;;;;;;;;;;;;19.28;66.54;101820.78;5055994;28;1606;-35
2021/12/15 11:10:54;;;;;;;;;;;;;;;19.21;66.74;101818.66;5050792;28;1466;-35
2021/12/15 11:13:25;;;;;;;;;;;;;;;19.32;66.56;101818.75;5050741;28;1744;-35
2021/12/15 11:15:54;;;;;;;;;;;;;;;19.25;66.37;101812.13;5055042;28;1977;-35
2021/12/15 11:18:22;;;;;;;;;;;;;;;19.35;66.26;101821.19;5055203;28;1794;-35
2021/12/15 11:20:50;;;;;;;;;;;;;;;19.31;66.00;101817.03;5056210;28;1845;-35
2021/12/15 11:23:20;;;;;;;;;;;;;;;19.17;66.39;101809.13;5052056;28;1943;-35
2021/12/15 11:25:50;;;;;;;;;;;;;;;19.10;66.25;101810.53;5056350;28;1103;-35
2021/12/15 11:28:19;;;;;;;;;;;;;;;19.19;66.80;101809.88;5056530;28;1728;-34
2021/12/15 11:30:47;;;;;;;;;;;;;;;19.02;66.15;101806.59;5051788;28;1782;-35
2021/12/15 11:33:18;;;;;;;;;;;;;;;18.93;66.42;101801.88;5057147;28;1911;-35
2021/12/15 11:35:54;;;;;;;;;;;;;;;19.02;66.73;101813.75;5055667;28;1975;-35
2021/12/15 11:38:26;;;;;;;;;;;;;;;18.94;66.24;101795.56;5054664;28;1427;-35
2021/12/15 11:41:07;;;;;;;;;;;;;;;18.82;66.66;101796.44;5056028;28;1079;-35
2021/12/15 11:43:36;;;;;;;;;;;;;;;18.88;66.86;101787.97;5055022;28;1884;-35
2021/12/15 11:46:15;;;;;;;;;;;;;;;19.05;65.61;101790.28;5045179;28;1540;-35
2021/12/15 11:48:56;;;;;;;;;;;;;;;18.84;66.28;101787.34;5043297;28;1621;-35
2021/12/15 11:51:38;;;;;;;;;;;;;;;18.94;66.55;101782.19;5050395;28;1879;-35
2021/12/15 11:54:13;;;;;;;;;;;;;;;18.90;66.46;101780.69;5051097;28;1973;-35
2021/12/15 11:56:50;;;;;;;;;;;;;;;18.97;66.46;101787.31;5043859;28;1748;-35
2021/12/15 11:59:20;;;;;;;;;;;;;;;19.11;65.69;101777.41;5043872;28;1846;-34
2021/12/15 12:01:51;;;;;;;;;;;;;;;19.25;66.09;101779.94;5048074;28;1918;-35
2021/12/15 12:04:20;;;;;;;;;;;;;;;19.12;65.79;101761.22;5042140;28;2220;-34
2021/12/15 12:07:05;;;;;;;;;;;;;;;19.19;66.21;101759.78;5045590;28;1657;-35
2021/12/15 12:09:38;;;;;;;;;;;;;;;19.05;66.10;101751.91;5042387;28;1476;-35
2021/12/15 12:12:06;;;;;;;;;;;;;;;19.05;66.75;101742.03;5043918;28;1771;-35
2021/12/15 12:14:42;;;;;;;;;;;;;;;18.91;66.66;101755.56;5043062;28;1910;-35
2021/12/15 12:17:15;;;;;;;;;;;;;;;18.82;66.15;101756.22;5054685;28;1861;-35
2021/12/15 12:20:06;;;;;;;;;;;;;;;18.88;64.34;101759.34;5053152;28;1980;-35
2021/12/15 12:22:35;;;;;;;;;;;;;;;18.96;65.46;101742.72;5053410;28;1922;-35
2021/12/15 12:25:19;;;;;;;;;;;;;;;18.96;65.23;101752.56;5054640;28;1086;-35
2021/12/15 12:27:52;;;;;;;;;;;;;;;18.93;65.02;101761.69;5053804;28;2242;-35
2021/12/15 12:30:36;;;;;;;;;;;;;;;18.77;65.61;101758.38;5053532;28;1912;-35
2021/12/15 12:33:09;;;;;;;;;;;;;;;18.85;65.19;101756.03;5053778;28;1986;-36
2021/12/15 12:35:42;;;;;;;;;;;;;;;18.85;65.57;101751.50;5053171;28;1906;-35
2021/12/15 12:38:14;;;;;;;;;;;;;;;18.94;65.22;101750.00;5054591;28;1851;-35
2021/12/15 12:40:47;;;;;;;;;;;;;;;18.95;64.91;101746.34;5054807;28;1111;-35
2021/12/15 12:43:27;;;;;;;;;;;;;;;18.96;64.59;101737.34;5054221;28;1891;-35
2021/12/15 12:46:20;;;;;;;;;;;;;;;18.91;65.41;101744.84;5051462;28;1899;-35
2021/12/15 13:00:44;;;;;;;;;;;;;;;18.75;64.82;101742.41;5053747;28;2443;-35
2021/12/15 13:03:18;;;;;;;;;;;;;;;18.93;64.23;101750.97;5053076;28;1634;-35
2021/12/15 13:05:48;;;;;;;;;;;;;;;18.90;63.81;101756.56;5052285;28;1617;-35
2021/12/15 13:08:25;;;;;;;;;;;;;;;18.87;64.41;101741.53;5053392;28;1983;-35
2021/12/15 13:10:55;;;;;;;;;;;;;;;18.87;65.32;101748.72;5037105;28;1624;-35
2021/12/15 13:13:26;;;;;;;;;;;;;;;18.95;63.99;101766.94;5041230;28;1934;-35
2021/12/15 13:16:11;;;;;;;;;;;;;;;19.12;64.30;101752.28;5052697;28;1963;-35
2021/12/15 13:18:50;;;;;;;;;;;;;;;19.16;64.54;101759.16;5050109;28;1785;-35
2021/12/15 13:21:27;;;;;;;;;;;;;;;18.91;63.85;101754.72;5053529;28;1863;-35
2021/12/15 13:24:00;;;;;;;;;;;;;;;18.88;64.14;101772.75;5049784;28;1803;-35
2021/12/15 13:29:47;;;;;;;;;;;;;;;18.85;64.93;101761.38;5015325;28;2124;-35
2021/12/15 13:32:14;;;;;;;;;;;;;;;18.96;64.22;101779.34;5050228;28;1815;-35
2021/12/15 13:34:47;;;;;;;;;;;;;;;18.87;63.55;101771.00;5052819;28;2007;-35
2021/12/15 13:37:28;;;;;;;;;;;;;;;18.82;64.12;101764.28;5053042;28;1845;-35
2021/12/15 13:39:55;;;;;;;;;;;;;;;18.87;63.51;101772.84;5053504;28;1887;-35
2021/12/15 13:42:39;;;;;;;;;;;;;;;18.79;64.19;101767.16;5052827;28;1961;-35
2021/12/15 13:45:32;;;;;;;;;;;;;;;18.85;63.36;101777.47;5052417;28;1830;-35
2021/12/15 13:48:02;;;;;;;;;;;;;;;18.84;64.22;101781.09;5052697;28;2070;-35
2021/12/15 13:50:34;;;;;;;;;;;;;;;18.86;63.92;101769.31;5053177;28;1883;-35
2021/12/15 13:53:06;;;;;;;;;;;;;;;18.86;63.63;101768.44;5053274;28;2012;-35
2021/12/15 13:55:40;;;;;;;;;;;;;;;18.83;63.45;101788.28;5053751;28;1914;-35
2021/12/15 13:58:17;;;;;;;;;;;;;;;18.76;64.07;101775.41;5051849;28;1783;-35
2021/12/15 14:00:53;;;;;;;;;;;;;;;18.81;63.74;101770.63;5049813;28;1548;-35
2021/12/15 14:03:22;;;;;;;;;;;;;;;19.07;63.19;101782.97;5044717;28;1776;-35
2021/12/15 14:05:56;;;;;;;;;;;;;;;19.17;62.63;101777.81;5045434;28;1714;-35
2021/12/15 14:08:41;;;;;;;;;;;;;;;19.18;62.42;101778.66;5045279;28;1912;-35
2021/12/15 14:11:16;;;;;;;;;;;;;;;18.94;63.19;101797.38;5053615;28;1086;-35
2021/12/15 14:13:49;;;;;;;;;;;;;;;18.69;64.14;101781.19;5044310;28;1353;-35
2021/12/15 14:16:31;;;;;;;;;;;;;;;18.64;64.11;101788.72;5052751;28;1968;-35
2021/12/15 14:19:02;;;;;;;;;;;;;;;18.82;64.13;101783.03;5049728;28;1912;-35
2021/12/15 14:21:37;;;;;;;;;;;;;;;18.75;63.54;101790.63;5048904;28;1746;-34
2021/12/15 14:24:04;;;;;;;;;;;;;;;18.72;63.91;101787.31;5048022;28;1882;-35
2021/12/15 14:26:33;;;;;;;;;;;;;;;18.79;63.95;101791.28;5048572;28;1788;-35
2021/12/15 14:29:08;;;;;;;;;;;;;;;18.81;63.53;101792.91;5053838;28;1633;-35